createdAt,value
2022-11-12T00:01:11.872Z,19.06
2022-11-12T00:06:33.597Z,19.04
2022-11-12T00:11:55.294Z,19.02
2022-11-12T00:17:16.962Z,18.99
2022-11-12T00:22:39.014Z,18.96
2022-11-12T00:28:05.540Z,18.93
2022-11-12T00:33:27.167Z,18.90
2022-11-12T00:38:48.785Z,18.87
2022-11-12T00:44:10.426Z,18.84
2022-11-12T00:49:32.597Z,18.83
2022-11-12T00:54:54.216Z,18.81
2022-11-12T01:00:18.405Z,18.79
2022-11-12T01:05:40.046Z,18.76
2022-11-12T01:11:11.787Z,18.76
2022-11-12T01:16:38.770Z,18.73
2022-11-12T01:22:00.465Z,18.71
2022-11-12T01:27:22.173Z,18.69
2022-11-12T01:32:43.837Z,18.67
2022-11-12T01:38:05.483Z,18.65
2022-11-12T01:43:27.156Z,18.64
2022-11-12T01:48:53.664Z,18.62
2022-11-12T01:54:18.726Z,18.60
2022-11-12T01:59:43.910Z,18.58
2022-11-12T02:05:09.002Z,18.58
2022-11-12T02:10:30.763Z,18.55
2022-11-12T02:15:56.218Z,18.55
2022-11-12T02:21:22.831Z,18.54
2022-11-12T02:26:48.464Z,18.52
2022-11-12T02:32:09.985Z,18.48
2022-11-12T02:37:31.708Z,18.50
2022-11-12T02:42:53.360Z,18.48
2022-11-12T02:48:19.032Z,18.46
2022-11-12T02:53:41.069Z,18.45
2022-11-12T02:59:02.756Z,18.44
2022-11-12T03:04:24.394Z,18.43
2022-11-12T03:09:46.038Z,18.42
2022-11-12T03:15:08.067Z,18.40
2022-11-12T03:20:30.340Z,18.39
2022-11-12T03:25:52.189Z,18.37
2022-11-12T03:31:13.899Z,18.36
2022-11-12T03:36:35.768Z,18.35
2022-11-12T03:41:57.463Z,18.34
2022-11-12T03:47:19.328Z,18.33
2022-11-12T03:52:52.200Z,18.34
2022-11-12T03:58:13.856Z,18.31
2022-11-12T04:03:35.559Z,18.30
2022-11-12T04:08:57.221Z,18.31
2022-11-12T04:14:18.898Z,18.29
2022-11-12T04:19:58.839Z,18.28
2022-11-12T04:25:38.810Z,18.25
2022-11-12T04:31:00.437Z,18.24
2022-11-12T04:36:22.082Z,18.24
2022-11-12T04:42:02.153Z,18.22
2022-11-12T04:47:23.923Z,18.21
2022-11-12T04:52:45.530Z,18.21
2022-11-12T04:58:07.270Z,18.19
2022-11-12T05:03:28.947Z,18.20
2022-11-12T05:08:50.650Z,18.18
2022-11-12T05:14:12.802Z,18.17
2022-11-12T05:19:35.278Z,18.15
2022-11-12T05:24:56.914Z,18.15
2022-11-12T05:30:18.596Z,18.14
2022-11-12T05:35:40.238Z,18.13
2022-11-12T05:41:01.898Z,18.12
2022-11-12T05:46:23.581Z,18.12
2022-11-12T05:51:45.356Z,18.11
2022-11-12T05:57:06.998Z,18.10
2022-11-12T06:02:28.685Z,18.09
2022-11-12T06:07:50.530Z,18.07
2022-11-12T06:13:12.265Z,18.07
2022-11-12T06:18:34.030Z,18.05
2022-11-12T06:23:58.616Z,18.05
2022-11-12T06:29:20.314Z,18.04
2022-11-12T06:34:41.976Z,18.03
2022-11-12T06:40:04.029Z,18.04
2022-11-12T06:45:26.066Z,18.09
2022-11-12T06:50:47.758Z,18.29
2022-11-12T06:56:09.539Z,18.70
2022-11-12T07:01:31.305Z,19.06
2022-11-12T07:06:53.015Z,19.30
2022-11-12T07:12:14.679Z,19.64
2022-11-12T07:17:36.582Z,19.90
2022-11-12T07:23:00.837Z,19.78
2022-11-12T07:28:22.481Z,19.66
2022-11-12T07:33:45.505Z,19.57
2022-11-12T07:39:07.233Z,19.49
2022-11-12T07:44:29.125Z,19.43
2022-11-12T07:49:50.740Z,19.35
2022-11-12T07:55:12.372Z,19.64
2022-11-12T08:00:35.054Z,20.05
2022-11-12T08:05:56.746Z,19.89
2022-11-12T08:11:18.465Z,19.69
2022-11-12T08:16:40.123Z,20.27
2022-11-12T08:22:01.756Z,20.22
2022-11-12T08:27:23.728Z,19.81
2022-11-12T08:32:45.378Z,19.52
2022-11-12T08:38:09.429Z,19.34
2022-11-12T08:43:31.094Z,19.21
2022-11-12T08:48:52.828Z,19.09
2022-11-12T08:54:14.511Z,19.01
2022-11-12T08:59:36.225Z,18.96
2022-11-12T09:04:57.847Z,18.91
2022-11-12T09:10:19.729Z,18.86
2022-11-12T09:15:41.589Z,18.83
2022-11-12T09:21:08.947Z,18.80
2022-11-12T09:26:30.606Z,18.73
2022-11-12T09:31:52.269Z,18.70
2022-11-12T09:37:14.045Z,18.65
2022-11-12T09:42:37.127Z,18.63
2022-11-12T09:48:06.812Z,18.60
2022-11-12T09:53:28.450Z,18.57
2022-11-12T09:58:51.276Z,18.54
2022-11-12T10:04:51.620Z,18.53
2022-11-12T10:10:22.545Z,18.51
2022-11-12T10:16:11.701Z,18.48
2022-11-12T10:21:45.203Z,18.46
2022-11-12T10:27:20.296Z,18.45
2022-11-12T10:32:46.480Z,18.42
2022-11-12T10:38:17.431Z,18.39
2022-11-12T10:43:53.864Z,18.40
2022-11-12T10:49:16.047Z,18.37
2022-11-12T10:54:38.227Z,18.34
2022-11-12T11:00:19.069Z,18.34
2022-11-12T11:05:54.518Z,18.33
2022-11-12T11:11:28.818Z,18.29
2022-11-12T11:17:08.562Z,18.27
2022-11-12T11:22:44.568Z,18.27
2022-11-12T11:28:29.585Z,18.25
2022-11-12T11:34:12.763Z,18.26
2022-11-12T11:39:55.654Z,18.28
2022-11-12T11:45:40.951Z,18.27
2022-11-12T11:51:08.508Z,18.30
2022-11-12T11:56:36.880Z,18.30
2022-11-12T12:02:19.597Z,18.29
2022-11-12T12:07:51.066Z,18.29
2022-11-12T12:13:20.472Z,18.33
2022-11-12T12:18:55.007Z,18.29
2022-11-12T12:24:24.306Z,18.28
2022-11-12T12:29:51.616Z,18.25
2022-11-12T12:35:40.556Z,18.24
2022-11-12T12:41:28.286Z,18.20
2022-11-12T12:46:56.532Z,18.20
2022-11-12T12:52:18.185Z,18.18
2022-11-12T12:57:40.814Z,18.17
2022-11-12T13:03:02.586Z,18.17
2022-11-12T13:08:26.385Z,18.15
2022-11-12T13:13:48.327Z,18.15
2022-11-12T13:19:09.989Z,18.17
2022-11-12T13:25:08.834Z,18.20
2022-11-12T13:30:30.499Z,18.22
2022-11-12T13:35:52.240Z,18.25
2022-11-12T13:41:43.320Z,18.28
2022-11-12T13:47:05.057Z,18.30
2022-11-12T13:52:28.810Z,18.34
2022-11-12T13:57:52.427Z,18.34
2022-11-12T14:03:18.474Z,18.34
2022-11-12T14:09:13.279Z,18.41
2022-11-12T14:14:46.610Z,18.53
2022-11-12T14:20:47.429Z,18.70
2022-11-12T14:26:11.517Z,18.86
2022-11-12T14:31:33.261Z,18.97
2022-11-12T14:36:56.234Z,19.03
2022-11-12T14:42:17.882Z,19.04
2022-11-12T14:47:39.567Z,19.02
2022-11-12T14:53:25.741Z,19.01
2022-11-12T14:58:47.583Z,18.97
2022-11-12T15:04:11.948Z,18.95
2022-11-12T15:09:38.634Z,18.90
2022-11-12T15:15:29.556Z,18.84
2022-11-12T15:21:15.743Z,18.79
2022-11-12T15:26:40.153Z,18.72
2022-11-12T15:32:03.141Z,18.68
2022-11-12T15:37:27.733Z,18.65
2022-11-12T15:42:49.491Z,18.60
2022-11-12T15:48:12.869Z,18.58
2022-11-12T15:53:34.537Z,18.55
2022-11-12T15:58:56.181Z,18.54
2022-11-12T16:04:18.406Z,18.54
2022-11-12T16:09:40.121Z,18.51
2022-11-12T16:15:02.199Z,18.49
2022-11-12T16:20:27.009Z,18.48
2022-11-12T16:25:48.824Z,18.45
2022-11-12T16:31:10.546Z,18.44
2022-11-12T16:36:32.312Z,18.43
2022-11-12T16:41:53.949Z,18.41
2022-11-12T16:47:15.612Z,18.47
2022-11-12T16:52:37.255Z,18.62
2022-11-12T16:57:58.920Z,18.76
2022-11-12T17:03:20.531Z,18.86
2022-11-12T17:08:42.519Z,18.92
2022-11-12T17:14:06.001Z,18.94
2022-11-12T17:19:27.648Z,18.93
2022-11-12T17:24:49.338Z,18.92
2022-11-12T17:30:12.137Z,18.96
2022-11-12T17:35:34.766Z,19.06
2022-11-12T17:40:57.917Z,19.17
2022-11-12T17:46:22.440Z,19.33
2022-11-12T17:51:44.116Z,19.50
2022-11-12T17:57:05.784Z,19.61
2022-11-12T18:02:27.444Z,19.64
2022-11-12T18:07:49.214Z,19.63
2022-11-12T18:13:11.336Z,19.58
2022-11-12T18:18:33.003Z,19.53
2022-11-12T18:23:54.737Z,19.50
2022-11-12T18:29:16.436Z,19.47
2022-11-12T18:34:41.941Z,19.45
2022-11-12T18:40:04.696Z,19.43
2022-11-12T18:45:26.385Z,19.42
2022-11-12T18:50:48.062Z,19.46
2022-11-12T18:56:18.005Z,19.56
2022-11-12T19:01:39.792Z,19.66
2022-11-12T19:07:01.960Z,19.77
2022-11-12T19:12:23.878Z,19.83
2022-11-12T19:17:45.586Z,19.90
2022-11-12T19:23:07.375Z,19.95
2022-11-12T19:28:29.701Z,19.99
2022-11-12T19:33:51.873Z,20.02
2022-11-12T19:39:13.550Z,20.01
2022-11-12T19:44:35.285Z,19.99
2022-11-12T19:49:57.263Z,19.96
2022-11-12T19:55:18.905Z,19.92
2022-11-12T20:00:40.608Z,19.89
2022-11-12T20:06:04.685Z,19.90
2022-11-12T20:11:26.346Z,19.92
2022-11-12T20:16:49.519Z,19.94
2022-11-12T20:22:11.189Z,19.96
2022-11-12T20:27:32.883Z,19.96
2022-11-12T20:32:54.515Z,19.96
2022-11-12T20:38:16.544Z,19.96
2022-11-12T20:43:38.199Z,19.99
2022-11-12T20:49:00.255Z,19.99
2022-11-12T20:54:22.047Z,19.98
2022-11-12T20:59:43.742Z,19.97
2022-11-12T21:05:05.552Z,19.97
2022-11-12T21:10:27.754Z,19.97
2022-11-12T21:15:49.495Z,19.96
2022-11-12T21:21:13.603Z,19.94
2022-11-12T21:26:35.717Z,19.90
2022-11-12T21:31:57.427Z,19.87
2022-11-12T21:37:20.181Z,19.83
2022-11-12T21:42:45.096Z,19.77
2022-11-12T21:48:06.815Z,19.66
2022-11-12T21:53:28.468Z,19.58
2022-11-12T21:58:51.008Z,19.51
2022-11-12T22:04:17.946Z,19.44
2022-11-12T22:09:40.064Z,19.37
2022-11-12T22:15:01.775Z,19.32
2022-11-12T22:20:23.472Z,19.26
2022-11-12T22:25:45.114Z,19.22
2022-11-12T22:31:09.880Z,19.18
2022-11-12T22:36:31.975Z,19.12
2022-11-12T22:41:53.610Z,19.10
2022-11-12T22:47:15.295Z,19.06
2022-11-12T22:52:36.949Z,19.02
2022-11-12T22:57:59.931Z,18.99
2022-11-12T23:03:21.580Z,18.96
2022-11-12T23:14:04.846Z,18.89
2022-11-12T23:19:26.685Z,18.85
2022-11-12T23:24:48.337Z,18.83
2022-11-12T23:30:10.449Z,18.82
2022-11-12T23:35:32.188Z,18.79
2022-11-12T23:40:56.748Z,18.76
2022-11-12T23:46:18.851Z,18.72
2022-11-12T23:51:40.516Z,18.71
2022-11-12T23:57:02.163Z,18.68
